Milton-Freewater, Oregon
Current Conditions -  °F | °C
As of 3:53 PM on Thursday 27 Nov 2014 (Local Time) from KALW Reporting Station
Overcast Overcast  
Wind Chill: 61°   Ceiling: 5000
Heat Index: 61°   Visibility: 10mi
Dew Point: 47°   Wind: 15mph
Humidity: 60%   Direction: 190°S
Pressure: 29.85"   Gusts: NA
Location:  45.9139°N, 118.202°W
Report Text: KALW 272353Z 19013KT 10SM OVC050 16/08 A2985 RMK AO2 SLP107 60000 T01610083 10161 20133 56013
Loading
Personal Weather Stations






























Interactive Weather Map New forecast layout! Learn more

10-Day Weather Forecast

Advertisements
Track Severe Weather on mobile